Gotherington, United Kingdom
Current Conditions -  °F | °C
As of 8:58 AM on Sunday 26 Oct 2014 (Local Time) from EGVA Reporting Station
Overcast Overcast  
Wind Chill: 54°   Ceiling: 3000
Heat Index: 54°   Visibility: 6mi
Dew Point: 47°   Wind: 13mph
Humidity: 75%   Direction: 230°SW
Pressure: 30.11"   Gusts: NA
Location:  51.96°N, 2.05°W
Report Text: EGVA 260758Z AUTO 23011KT 9999 OVC030 12/08 A3011 RMK AO2 SLP200 T01240081
Loading
Personal Weather Stations






























Interactive Weather Map
Tropical Storm Tracking
New forecast layout! Learn more

10-Day Weather Forecast

Advertisements
Track Severe Weather on mobile